Terminal Aerodrome Forecast
Issued by NWS

Home | Current Version | Previous Version | Text Only | Print | Product List | Glossary On
Versions: 1 2 3 4 5 6 7 8 9 10 11 12 13
000
FTUS45 KRIW 302330
TAFBPI
TAF
KBPI 302330Z 0100/0124 32014G24KT P6SM BKN050
     FM010100 33010KT P6SM BKN050
     FM011100 34011KT P6SM VCSH OVC035
     FM011500 33011G21KT P6SM SCT060 BKN150
     FM011900 32016G26KT P6SM SCT060 BKN200=

USA.gov is the U.S. government's official web portal to all federal, state and local government web resources and services.